createdAt,value
2023-05-22T00:00:03.085Z,4.80
2023-05-22T00:05:06.960Z,5.20
2023-05-22T00:10:10.913Z,4.90
2023-05-22T00:15:14.014Z,4.80
2023-05-22T00:20:17.343Z,5.90
2023-05-22T00:25:20.857Z,5.70
2023-05-22T00:30:23.958Z,5.40
2023-05-22T00:35:27.069Z,6.00
2023-05-22T00:40:30.283Z,5.60
2023-05-22T00:45:33.295Z,5.50
2023-05-22T00:50:36.609Z,5.50
2023-05-22T00:55:40.286Z,5.70
2023-05-22T01:00:43.740Z,5.50
2023-05-22T01:05:46.754Z,5.40
2023-05-22T01:11:01.670Z,4.70
2023-05-22T01:16:30.141Z,4.50
2023-05-22T01:21:47.820Z,4.80
2023-05-22T01:27:08.625Z,4.20
2023-05-22T01:32:16.639Z,4.50
2023-05-22T01:37:22.820Z,4.20
2023-05-22T01:42:26.171Z,4.30
2023-05-22T01:47:29.367Z,4.20
2023-05-22T01:52:43.924Z,4.20
2023-05-22T01:57:59.867Z,4.70
2023-05-22T02:03:09.245Z,4.40
2023-05-22T02:08:14.754Z,4.50
2023-05-22T02:13:18.487Z,5.40
2023-05-22T02:18:29.728Z,4.70
2023-05-22T02:23:32.991Z,4.00
2023-05-22T02:28:36.100Z,4.10
2023-05-22T02:33:39.207Z,4.20
2023-05-22T02:38:42.323Z,5.30
2023-05-22T02:43:45.426Z,5.00
2023-05-22T02:48:48.539Z,5.40
2023-05-22T02:53:52.573Z,5.10
2023-05-22T02:58:57.136Z,5.00
2023-05-22T03:04:00.306Z,5.50
2023-05-22T03:09:04.601Z,4.90
2023-05-22T03:14:07.861Z,4.60
2023-05-22T03:19:15.713Z,5.10
2023-05-22T03:24:19.109Z,4.90
2023-05-22T03:29:22.342Z,4.70
2023-05-22T03:34:27.309Z,4.80
2023-05-22T03:39:30.587Z,4.90
2023-05-22T03:44:33.795Z,4.90
2023-05-22T03:49:36.800Z,4.80
2023-05-22T03:54:39.908Z,5.30
2023-05-22T03:59:42.927Z,5.40
2023-05-22T04:04:49.159Z,5.00
2023-05-22T04:09:52.403Z,4.60
2023-05-22T04:14:55.659Z,4.40
2023-05-22T04:19:58.810Z,4.30
2023-05-22T04:25:01.765Z,4.90
2023-05-22T04:30:07.478Z,5.00
2023-05-22T04:35:12.510Z,4.90
2023-05-22T04:40:16.420Z,5.10
2023-05-22T04:45:21.445Z,5.20
2023-05-22T04:50:25.165Z,5.20
2023-05-22T04:55:28.482Z,5.10
2023-05-22T05:00:32.605Z,4.70
2023-05-22T05:05:36.028Z,4.50
2023-05-22T05:10:39.542Z,5.50
2023-05-22T05:15:42.967Z,5.00
2023-05-22T05:20:46.438Z,4.50
2023-05-22T05:25:49.799Z,4.90
2023-05-22T05:30:53.006Z,4.80
2023-05-22T05:35:56.424Z,5.00
2023-05-22T05:40:59.550Z,5.70
2023-05-22T05:46:02.770Z,5.60
2023-05-22T05:51:05.969Z,5.30
2023-05-22T05:56:09.947Z,5.40
2023-05-22T06:01:13.422Z,4.80
2023-05-22T06:06:17.745Z,5.70
2023-05-22T06:11:22.415Z,5.10
2023-05-22T06:16:26.615Z,4.70
2023-05-22T06:21:29.839Z,5.60
2023-05-22T06:26:33.611Z,4.80
2023-05-22T06:31:38.768Z,5.00
2023-05-22T06:36:42.493Z,5.10
2023-05-22T06:41:45.858Z,4.80
2023-05-22T06:46:49.382Z,4.80
2023-05-22T06:51:52.816Z,5.20
2023-05-22T06:56:57.752Z,5.20
2023-05-22T07:02:01.161Z,5.00
2023-05-22T07:07:04.475Z,4.40
2023-05-22T07:12:08.543Z,4.30
2023-05-22T07:17:11.826Z,3.50
2023-05-22T07:22:15.593Z,4.00
2023-05-22T07:27:18.858Z,3.70
2023-05-22T07:32:22.425Z,3.50
2023-05-22T07:37:25.805Z,3.20
2023-05-22T07:42:30.432Z,3.20
2023-05-22T07:47:33.596Z,3.00
2023-05-22T07:52:36.855Z,3.50
2023-05-22T07:57:39.973Z,3.10
2023-05-22T08:02:44.071Z,3.30
2023-05-22T08:07:47.300Z,2.90
2023-05-22T08:12:50.537Z,2.60
2023-05-22T08:17:53.853Z,3.10
2023-05-22T08:22:57.152Z,2.80
2023-05-22T08:28:00.251Z,2.60
2023-05-22T08:33:03.477Z,2.90
2023-05-22T08:38:06.775Z,2.60
2023-05-22T08:43:09.890Z,3.00
2023-05-22T08:48:14.206Z,3.30
2023-05-22T08:53:19.180Z,3.30
2023-05-22T08:58:22.514Z,2.80
2023-05-22T09:03:29.084Z,3.80
2023-05-22T09:08:32.501Z,3.00
2023-05-22T09:13:38.895Z,3.10
2023-05-22T09:18:42.778Z,2.90
2023-05-22T09:23:51.108Z,3.10
2023-05-22T09:28:54.256Z,2.80
2023-05-22T09:33:57.595Z,3.30
2023-05-22T09:39:01.961Z,3.20
2023-05-22T09:44:16.312Z,3.30
2023-05-22T09:49:19.795Z,3.20
2023-05-22T09:54:26.368Z,3.00
2023-05-22T09:59:31.588Z,3.00
2023-05-22T10:04:35.065Z,3.00
2023-05-22T10:09:40.908Z,3.20
2023-05-22T10:14:44.150Z,2.80
2023-05-22T10:19:47.576Z,3.00
2023-05-22T10:24:52.326Z,3.10
2023-05-22T10:30:04.063Z,3.20
2023-05-22T10:35:38.878Z,2.90
2023-05-22T10:40:45.498Z,3.00
2023-05-22T10:45:48.809Z,3.00
2023-05-22T10:50:54.868Z,3.00
2023-05-22T10:56:02.786Z,2.80
2023-05-22T11:01:11.153Z,2.90
2023-05-22T11:06:32.559Z,3.20
2023-05-22T11:11:35.666Z,3.00
2023-05-22T11:16:39.521Z,2.80
2023-05-22T11:21:47.007Z,2.60
2023-05-22T11:27:06.910Z,2.90
2023-05-22T11:32:12.257Z,3.10
2023-05-22T11:37:16.506Z,3.00
2023-05-22T11:42:20.230Z,2.90
2023-05-22T11:47:23.469Z,3.10
2023-05-22T11:52:32.757Z,2.90
2023-05-22T11:57:36.963Z,3.10
2023-05-22T12:02:46.819Z,5.50
2023-05-22T12:07:50.498Z,3.00
2023-05-22T12:12:54.864Z,2.50
2023-05-22T12:17:58.165Z,2.80
2023-05-22T12:23:01.402Z,2.70
2023-05-22T12:28:07.147Z,3.00
2023-05-22T12:33:14.435Z,2.90
2023-05-22T12:38:21.382Z,2.70
2023-05-22T12:43:25.702Z,3.00
2023-05-22T12:48:29.000Z,2.80
2023-05-22T12:53:32.117Z,2.80
2023-05-22T12:58:35.330Z,2.70
2023-05-22T13:03:38.441Z,3.00
2023-05-22T13:08:41.751Z,3.10
2023-05-22T13:13:44.854Z,2.90
2023-05-22T13:18:48.221Z,3.30
2023-05-22T13:23:51.845Z,2.60
2023-05-22T13:28:55.102Z,2.90
2023-05-22T13:33:59.148Z,3.10
2023-05-22T13:39:03.058Z,3.00
2023-05-22T13:44:06.521Z,2.70
2023-05-22T13:49:09.691Z,3.20
2023-05-22T13:54:13.011Z,2.40
2023-05-22T13:59:16.111Z,2.90
2023-05-22T14:04:19.427Z,3.10
2023-05-22T14:09:22.740Z,2.60
2023-05-22T14:14:26.057Z,2.80
2023-05-22T14:19:29.334Z,2.90
2023-05-22T14:24:32.471Z,2.60
2023-05-22T14:29:35.925Z,2.80
2023-05-22T14:34:39.717Z,3.20
2023-05-22T14:39:42.828Z,3.10
2023-05-22T14:44:46.346Z,3.10
2023-05-22T14:49:49.456Z,2.90
2023-05-22T14:54:52.564Z,3.20
2023-05-22T14:59:55.875Z,2.90
2023-05-22T15:04:58.907Z,3.10
2023-05-22T15:10:02.509Z,3.00
2023-05-22T15:15:06.295Z,2.80
2023-05-22T15:20:10.630Z,3.00
2023-05-22T15:25:15.554Z,3.00
2023-05-22T15:30:20.792Z,3.10
2023-05-22T15:35:25.422Z,2.40
2023-05-22T15:40:28.438Z,3.30
2023-05-22T15:45:32.098Z,3.10
2023-05-22T15:50:35.358Z,2.80
2023-05-22T15:55:38.792Z,3.50
2023-05-22T16:00:42.096Z,2.90
2023-05-22T16:05:47.252Z,3.60
2023-05-22T16:10:50.359Z,3.10
2023-05-22T16:15:53.804Z,3.20
2023-05-22T16:20:56.885Z,3.40
2023-05-22T16:26:00.198Z,3.30
2023-05-22T16:31:03.540Z,3.50
2023-05-22T16:36:07.199Z,3.30
2023-05-22T16:41:10.344Z,3.50
2023-05-22T16:46:13.482Z,4.20
2023-05-22T16:51:16.878Z,3.30
2023-05-22T16:56:21.106Z,3.30
2023-05-22T17:01:24.486Z,4.20
2023-05-22T17:06:29.494Z,3.70
2023-05-22T17:11:33.214Z,5.10
2023-05-22T17:16:38.101Z,4.50
2023-05-22T17:21:41.466Z,3.90
2023-05-22T17:26:44.886Z,4.00
2023-05-22T17:31:48.292Z,3.30
2023-05-22T17:36:51.613Z,4.00
2023-05-22T17:41:54.719Z,3.70
2023-05-22T17:46:58.038Z,3.60
2023-05-22T17:52:01.144Z,3.60
2023-05-22T17:57:04.788Z,3.30
2023-05-22T18:02:09.799Z,3.70
2023-05-22T18:07:13.549Z,3.50
2023-05-22T18:12:31.063Z,3.50
2023-05-22T18:17:35.420Z,4.40
2023-05-22T18:22:40.144Z,4.90
2023-05-22T18:27:43.519Z,4.60
2023-05-22T18:32:46.740Z,4.20
2023-05-22T18:37:49.910Z,4.40
2023-05-22T18:42:53.122Z,3.80
2023-05-22T18:47:56.372Z,4.60
2023-05-22T18:52:59.692Z,4.80
2023-05-22T18:58:03.278Z,4.80
2023-05-22T19:03:06.656Z,4.30
2023-05-22T19:08:10.003Z,4.10
2023-05-22T19:13:13.117Z,4.30
2023-05-22T19:18:16.525Z,4.80
2023-05-22T19:23:19.638Z,5.10
2023-05-22T19:28:23.345Z,4.70
2023-05-22T19:33:27.181Z,4.80
2023-05-22T19:38:31.390Z,4.80
2023-05-22T19:43:35.069Z,4.10
2023-05-22T19:48:38.261Z,4.40
2023-05-22T19:53:41.872Z,4.60
2023-05-22T19:58:45.320Z,4.60
2023-05-22T20:03:48.626Z,3.90
2023-05-22T20:08:51.926Z,3.80
2023-05-22T20:13:55.696Z,3.90
2023-05-22T20:18:58.965Z,4.10
2023-05-22T20:24:06.130Z,3.80
2023-05-22T20:29:09.577Z,4.00
2023-05-22T20:34:12.890Z,3.80
2023-05-22T20:39:16.515Z,4.10
2023-05-22T20:44:23.763Z,4.70
2023-05-22T20:49:28.292Z,4.90
2023-05-22T20:54:34.815Z,4.30
2023-05-22T20:59:38.365Z,5.00
2023-05-22T21:04:41.681Z,5.10
2023-05-22T21:09:45.008Z,4.70
2023-05-22T21:14:48.424Z,4.60
2023-05-22T21:19:51.724Z,4.70
2023-05-22T21:24:55.048Z,5.40
2023-05-22T21:29:58.156Z,5.20
2023-05-22T21:35:01.259Z,4.60
2023-05-22T21:40:04.900Z,4.10
2023-05-22T21:45:08.717Z,5.70
2023-05-22T21:50:12.138Z,5.10
2023-05-22T21:55:15.807Z,5.20
2023-05-22T22:00:19.308Z,4.90
2023-05-22T22:05:22.368Z,5.10
2023-05-22T22:10:25.596Z,5.50
2023-05-22T22:15:28.792Z,5.90
2023-05-22T22:20:44.124Z,5.80
2023-05-22T22:25:49.483Z,5.80
2023-05-22T22:30:55.328Z,5.50
2023-05-22T22:35:58.836Z,6.30
2023-05-22T22:41:02.055Z,6.80
2023-05-22T22:46:05.606Z,6.10
2023-05-22T22:51:09.813Z,5.00
2023-05-22T22:56:13.132Z,5.70
2023-05-22T23:01:16.251Z,6.70
2023-05-22T23:06:19.643Z,6.20
2023-05-22T23:11:22.760Z,6.60
2023-05-22T23:16:26.013Z,6.20
2023-05-22T23:21:29.377Z,6.10
2023-05-22T23:26:33.671Z,6.40
2023-05-22T23:31:37.323Z,7.20
2023-05-22T23:36:40.552Z,6.30
2023-05-22T23:41:44.684Z,6.60
2023-05-22T23:46:50.144Z,6.30
2023-05-22T23:51:53.253Z,6.70
2023-05-22T23:56:56.264Z,6.50
